sensor_id;sensor_type;location;lat;lon;timestamp;P1;durP1;ratioP1;P2;durP2;ratioP2
9914;SDS011;4996;48.746;9.174;2023-06-04T00:02:07;7.07;;;4.87;;
9914;SDS011;4996;48.746;9.174;2023-06-04T00:04:34;7.60;;;4.60;;
9914;SDS011;4996;48.746;9.174;2023-06-04T00:06:59;6.77;;;4.70;;
9914;SDS011;4996;48.746;9.174;2023-06-04T00:09:25;5.80;;;4.20;;
9914;SDS011;4996;48.746;9.174;2023-06-04T00:11:50;7.20;;;4.23;;
9914;SDS011;4996;48.746;9.174;2023-06-04T00:14:16;11.83;;;4.83;;
9914;SDS011;4996;48.746;9.174;2023-06-04T00:16:41;10.30;;;5.10;;
9914;SDS011;4996;48.746;9.174;2023-06-04T00:19:07;6.40;;;4.70;;
9914;SDS011;4996;48.746;9.174;2023-06-04T00:21:33;7.03;;;4.17;;
9914;SDS011;4996;48.746;9.174;2023-06-04T00:24:00;4.87;;;4.03;;
9914;SDS011;4996;48.746;9.174;2023-06-04T00:26:26;5.90;;;3.90;;
9914;SDS011;4996;48.746;9.174;2023-06-04T00:28:53;6.37;;;4.57;;
9914;SDS011;4996;48.746;9.174;2023-06-04T00:31:19;7.13;;;4.60;;
9914;SDS011;4996;48.746;9.174;2023-06-04T00:33:46;6.63;;;4.70;;
9914;SDS011;4996;48.746;9.174;2023-06-04T00:36:12;9.73;;;4.93;;
9914;SDS011;4996;48.746;9.174;2023-06-04T00:38:37;9.60;;;4.30;;
9914;SDS011;4996;48.746;9.174;2023-06-04T00:41:03;8.93;;;4.40;;
9914;SDS011;4996;48.746;9.174;2023-06-04T00:43:28;7.17;;;4.53;;
9914;SDS011;4996;48.746;9.174;2023-06-04T00:45:56;6.60;;;4.73;;
9914;SDS011;4996;48.746;9.174;2023-06-04T00:48:22;5.73;;;4.97;;
9914;SDS011;4996;48.746;9.174;2023-06-04T00:50:50;8.13;;;4.63;;
9914;SDS011;4996;48.746;9.174;2023-06-04T00:53:15;8.33;;;4.60;;
9914;SDS011;4996;48.746;9.174;2023-06-04T00:55:41;5.37;;;4.30;;
9914;SDS011;4996;48.746;9.174;2023-06-04T00:58:08;7.20;;;5.20;;
9914;SDS011;4996;48.746;9.174;2023-06-04T01:00:34;6.23;;;4.57;;
9914;SDS011;4996;48.746;9.174;2023-06-04T01:03:01;9.87;;;5.00;;
9914;SDS011;4996;48.746;9.174;2023-06-04T01:05:35;7.17;;;4.20;;
9914;SDS011;4996;48.746;9.174;2023-06-04T01:08:05;5.30;;;4.80;;
9914;SDS011;4996;48.746;9.174;2023-06-04T01:10:33;7.00;;;4.50;;
9914;SDS011;4996;48.746;9.174;2023-06-04T01:12:59;6.10;;;4.57;;
9914;SDS011;4996;48.746;9.174;2023-06-04T01:15:25;7.60;;;3.60;;
9914;SDS011;4996;48.746;9.174;2023-06-04T01:17:51;7.27;;;4.87;;
9914;SDS011;4996;48.746;9.174;2023-06-04T01:20:40;6.00;;;3.77;;
9914;SDS011;4996;48.746;9.174;2023-06-04T01:23:14;7.70;;;3.87;;
9914;SDS011;4996;48.746;9.174;2023-06-04T01:26:01;7.27;;;3.97;;
9914;SDS011;4996;48.746;9.174;2023-06-04T01:28:28;7.27;;;4.27;;
9914;SDS011;4996;48.746;9.174;2023-06-04T01:30:58;6.20;;;3.57;;
9914;SDS011;4996;48.746;9.174;2023-06-04T01:33:25;6.73;;;3.67;;
9914;SDS011;4996;48.746;9.174;2023-06-04T01:35:50;9.00;;;4.23;;
9914;SDS011;4996;48.746;9.174;2023-06-04T01:38:16;4.70;;;3.63;;
9914;SDS011;4996;48.746;9.174;2023-06-04T01:40:43;7.13;;;3.63;;
9914;SDS011;4996;48.746;9.174;2023-06-04T01:43:08;3.40;;;3.10;;
9914;SDS011;4996;48.746;9.174;2023-06-04T01:45:34;7.47;;;3.40;;
9914;SDS011;4996;48.746;9.174;2023-06-04T01:48:01;4.07;;;3.20;;
9914;SDS011;4996;48.746;9.174;2023-06-04T01:50:27;4.00;;;3.30;;
9914;SDS011;4996;48.746;9.174;2023-06-04T01:52:53;5.30;;;3.70;;
9914;SDS011;4996;48.746;9.174;2023-06-04T01:55:19;4.83;;;3.17;;
9914;SDS011;4996;48.746;9.174;2023-06-04T01:57:45;8.10;;;2.90;;
9914;SDS011;4996;48.746;9.174;2023-06-04T02:00:15;6.60;;;2.87;;
9914;SDS011;4996;48.746;9.174;2023-06-04T02:02:42;5.73;;;3.10;;
9914;SDS011;4996;48.746;9.174;2023-06-04T02:05:09;5.67;;;3.07;;
9914;SDS011;4996;48.746;9.174;2023-06-04T02:07:39;4.97;;;2.77;;
9914;SDS011;4996;48.746;9.174;2023-06-04T02:10:07;5.40;;;3.13;;
9914;SDS011;4996;48.746;9.174;2023-06-04T02:12:38;5.93;;;2.73;;
9914;SDS011;4996;48.746;9.174;2023-06-04T02:15:05;4.47;;;3.97;;
9914;SDS011;4996;48.746;9.174;2023-06-04T02:17:31;4.90;;;4.03;;
9914;SDS011;4996;48.746;9.174;2023-06-04T02:19:57;6.47;;;2.80;;
9914;SDS011;4996;48.746;9.174;2023-06-04T02:22:23;4.13;;;2.30;;
9914;SDS011;4996;48.746;9.174;2023-06-04T02:24:49;2.70;;;2.30;;
9914;SDS011;4996;48.746;9.174;2023-06-04T02:27:15;3.67;;;3.07;;
9914;SDS011;4996;48.746;9.174;2023-06-04T02:29:41;3.17;;;2.40;;
9914;SDS011;4996;48.746;9.174;2023-06-04T02:32:07;3.20;;;2.80;;
9914;SDS011;4996;48.746;9.174;2023-06-04T02:34:33;3.77;;;2.23;;
9914;SDS011;4996;48.746;9.174;2023-06-04T02:37:01;3.30;;;2.47;;
9914;SDS011;4996;48.746;9.174;2023-06-04T02:39:27;4.80;;;2.63;;
9914;SDS011;4996;48.746;9.174;2023-06-04T02:41:53;6.17;;;3.30;;
9914;SDS011;4996;48.746;9.174;2023-06-04T02:44:19;8.80;;;2.70;;
9914;SDS011;4996;48.746;9.174;2023-06-04T02:46:45;6.03;;;4.50;;
9914;SDS011;4996;48.746;9.174;2023-06-04T02:49:10;4.70;;;3.27;;
9914;SDS011;4996;48.746;9.174;2023-06-04T02:51:42;5.10;;;3.30;;
9914;SDS011;4996;48.746;9.174;2023-06-04T02:54:09;5.40;;;3.37;;
9914;SDS011;4996;48.746;9.174;2023-06-04T02:56:36;4.67;;;3.97;;
9914;SDS011;4996;48.746;9.174;2023-06-04T02:59:02;6.40;;;4.50;;
9914;SDS011;4996;48.746;9.174;2023-06-04T03:01:28;10.60;;;4.70;;
9914;SDS011;4996;48.746;9.174;2023-06-04T03:03:54;5.73;;;4.83;;
9914;SDS011;4996;48.746;9.174;2023-06-04T03:06:21;8.70;;;4.27;;
9914;SDS011;4996;48.746;9.174;2023-06-04T03:08:50;7.90;;;4.20;;
9914;SDS011;4996;48.746;9.174;2023-06-04T03:11:17;5.63;;;4.07;;
9914;SDS011;4996;48.746;9.174;2023-06-04T03:13:44;6.40;;;5.20;;
9914;SDS011;4996;48.746;9.174;2023-06-04T03:16:10;8.40;;;4.27;;
9914;SDS011;4996;48.746;9.174;2023-06-04T03:18:36;4.93;;;3.93;;
9914;SDS011;4996;48.746;9.174;2023-06-04T03:21:02;4.83;;;4.33;;
9914;SDS011;4996;48.746;9.174;2023-06-04T03:23:28;4.20;;;3.37;;
9914;SDS011;4996;48.746;9.174;2023-06-04T03:25:54;6.00;;;3.97;;
9914;SDS011;4996;48.746;9.174;2023-06-04T03:28:20;8.07;;;3.90;;
9914;SDS011;4996;48.746;9.174;2023-06-04T03:30:45;5.27;;;3.80;;
9914;SDS011;4996;48.746;9.174;2023-06-04T03:33:11;8.97;;;3.53;;
9914;SDS011;4996;48.746;9.174;2023-06-04T03:35:36;7.40;;;3.87;;
9914;SDS011;4996;48.746;9.174;2023-06-04T03:38:02;4.27;;;3.17;;
9914;SDS011;4996;48.746;9.174;2023-06-04T03:40:27;5.63;;;3.27;;
9914;SDS011;4996;48.746;9.174;2023-06-04T03:42:53;6.53;;;2.90;;
9914;SDS011;4996;48.746;9.174;2023-06-04T03:45:18;3.03;;;2.60;;
9914;SDS011;4996;48.746;9.174;2023-06-04T03:47:44;5.80;;;3.17;;
9914;SDS011;4996;48.746;9.174;2023-06-04T03:50:10;4.03;;;3.07;;
9914;SDS011;4996;48.746;9.174;2023-06-04T03:52:37;5.77;;;3.30;;
9914;SDS011;4996;48.746;9.174;2023-06-04T03:55:02;6.13;;;3.60;;
9914;SDS011;4996;48.746;9.174;2023-06-04T03:57:28;4.90;;;3.30;;
9914;SDS011;4996;48.746;9.174;2023-06-04T03:59:54;4.93;;;3.80;;
9914;SDS011;4996;48.746;9.174;2023-06-04T04:02:20;4.40;;;3.17;;
9914;SDS011;4996;48.746;9.174;2023-06-04T04:04:45;4.13;;;3.30;;
9914;SDS011;4996;48.746;9.174;2023-06-04T04:07:11;3.50;;;3.17;;
9914;SDS011;4996;48.746;9.174;2023-06-04T04:09:36;5.23;;;3.20;;
9914;SDS011;4996;48.746;9.174;2023-06-04T04:12:02;3.30;;;2.40;;
9914;SDS011;4996;48.746;9.174;2023-06-04T04:14:29;8.40;;;4.40;;
9914;SDS011;4996;48.746;9.174;2023-06-04T04:16:54;4.80;;;2.50;;
9914;SDS011;4996;48.746;9.174;2023-06-04T04:19:20;3.57;;;2.60;;
9914;SDS011;4996;48.746;9.174;2023-06-04T04:21:46;4.90;;;2.97;;
9914;SDS011;4996;48.746;9.174;2023-06-04T04:24:22;4.87;;;2.83;;
9914;SDS011;4996;48.746;9.174;2023-06-04T04:26:49;5.33;;;3.23;;
9914;SDS011;4996;48.746;9.174;2023-06-04T04:29:18;6.63;;;2.87;;
9914;SDS011;4996;48.746;9.174;2023-06-04T04:31:50;5.70;;;3.23;;
9914;SDS011;4996;48.746;9.174;2023-06-04T04:34:16;4.70;;;2.83;;
9914;SDS011;4996;48.746;9.174;2023-06-04T04:36:42;3.10;;;2.43;;
9914;SDS011;4996;48.746;9.174;2023-06-04T04:39:09;4.27;;;3.07;;
9914;SDS011;4996;48.746;9.174;2023-06-04T04:41:35;4.10;;;2.90;;
9914;SDS011;4996;48.746;9.174;2023-06-04T04:44:04;3.00;;;2.43;;
9914;SDS011;4996;48.746;9.174;2023-06-04T04:46:30;2.77;;;2.03;;
9914;SDS011;4996;48.746;9.174;2023-06-04T04:48:56;3.43;;;2.30;;
9914;SDS011;4996;48.746;9.174;2023-06-04T04:51:21;6.63;;;2.87;;
9914;SDS011;4996;48.746;9.174;2023-06-04T04:53:47;6.53;;;2.70;;
9914;SDS011;4996;48.746;9.174;2023-06-04T04:56:12;3.67;;;2.30;;
9914;SDS011;4996;48.746;9.174;2023-06-04T04:58:38;3.93;;;2.80;;
9914;SDS011;4996;48.746;9.174;2023-06-04T05:01:04;3.60;;;2.70;;
9914;SDS011;4996;48.746;9.174;2023-06-04T05:03:29;5.67;;;2.80;;
9914;SDS011;4996;48.746;9.174;2023-06-04T05:05:55;3.63;;;2.63;;
9914;SDS011;4996;48.746;9.174;2023-06-04T05:08:20;3.70;;;2.80;;
9914;SDS011;4996;48.746;9.174;2023-06-04T05:10:46;4.80;;;2.63;;
9914;SDS011;4996;48.746;9.174;2023-06-04T05:13:12;3.83;;;2.87;;
9914;SDS011;4996;48.746;9.174;2023-06-04T05:15:37;6.73;;;3.33;;
9914;SDS011;4996;48.746;9.174;2023-06-04T05:18:04;4.43;;;3.67;;
9914;SDS011;4996;48.746;9.174;2023-06-04T05:20:30;4.57;;;3.10;;
9914;SDS011;4996;48.746;9.174;2023-06-04T05:22:56;5.30;;;2.83;;
9914;SDS011;4996;48.746;9.174;2023-06-04T05:25:21;3.10;;;2.20;;
9914;SDS011;4996;48.746;9.174;2023-06-04T05:27:47;4.43;;;2.77;;
9914;SDS011;4996;48.746;9.174;2023-06-04T05:30:14;4.20;;;2.60;;
9914;SDS011;4996;48.746;9.174;2023-06-04T05:32:40;4.90;;;2.33;;
9914;SDS011;4996;48.746;9.174;2023-06-04T05:35:06;2.90;;;2.60;;
9914;SDS011;4996;48.746;9.174;2023-06-04T05:37:33;4.60;;;3.03;;
9914;SDS011;4996;48.746;9.174;2023-06-04T05:40:02;3.43;;;2.50;;
9914;SDS011;4996;48.746;9.174;2023-06-04T05:42:30;3.37;;;2.47;;
9914;SDS011;4996;48.746;9.174;2023-06-04T05:44:55;3.40;;;2.50;;
9914;SDS011;4996;48.746;9.174;2023-06-04T05:47:21;3.40;;;2.10;;
9914;SDS011;4996;48.746;9.174;2023-06-04T05:49:47;4.17;;;2.13;;
9914;SDS011;4996;48.746;9.174;2023-06-04T05:52:13;5.80;;;2.97;;
9914;SDS011;4996;48.746;9.174;2023-06-04T05:54:38;3.50;;;2.30;;
9914;SDS011;4996;48.746;9.174;2023-06-04T05:57:04;3.33;;;2.70;;
9914;SDS011;4996;48.746;9.174;2023-06-04T05:59:30;5.83;;;3.40;;
9914;SDS011;4996;48.746;9.174;2023-06-04T06:01:56;5.20;;;2.43;;
9914;SDS011;4996;48.746;9.174;2023-06-04T06:04:22;4.17;;;2.33;;
9914;SDS011;4996;48.746;9.174;2023-06-04T06:06:47;2.93;;;2.03;;
9914;SDS011;4996;48.746;9.174;2023-06-04T06:09:14;2.30;;;2.03;;
9914;SDS011;4996;48.746;9.174;2023-06-04T06:11:40;4.50;;;2.30;;
9914;SDS011;4996;48.746;9.174;2023-06-04T06:14:06;3.83;;;2.53;;
9914;SDS011;4996;48.746;9.174;2023-06-04T06:16:31;3.27;;;2.73;;
9914;SDS011;4996;48.746;9.174;2023-06-04T06:18:57;3.87;;;2.23;;
9914;SDS011;4996;48.746;9.174;2023-06-04T06:21:23;3.10;;;2.67;;
9914;SDS011;4996;48.746;9.174;2023-06-04T06:23:49;5.67;;;2.53;;
9914;SDS011;4996;48.746;9.174;2023-06-04T06:26:15;4.00;;;2.60;;
9914;SDS011;4996;48.746;9.174;2023-06-04T06:28:41;3.40;;;2.50;;
9914;SDS011;4996;48.746;9.174;2023-06-04T06:31:07;3.97;;;1.80;;
9914;SDS011;4996;48.746;9.174;2023-06-04T06:33:32;2.63;;;1.87;;
9914;SDS011;4996;48.746;9.174;2023-06-04T06:35:58;2.60;;;2.40;;
9914;SDS011;4996;48.746;9.174;2023-06-04T06:38:26;7.73;;;2.40;;
9914;SDS011;4996;48.746;9.174;2023-06-04T06:40:52;6.67;;;2.67;;
9914;SDS011;4996;48.746;9.174;2023-06-04T06:43:17;4.47;;;2.80;;
9914;SDS011;4996;48.746;9.174;2023-06-04T06:45:43;4.47;;;2.60;;
9914;SDS011;4996;48.746;9.174;2023-06-04T06:48:09;4.70;;;2.23;;
9914;SDS011;4996;48.746;9.174;2023-06-04T06:50:34;6.30;;;2.30;;
9914;SDS011;4996;48.746;9.174;2023-06-04T06:53:01;3.83;;;2.60;;
9914;SDS011;4996;48.746;9.174;2023-06-04T06:55:27;3.30;;;2.00;;
9914;SDS011;4996;48.746;9.174;2023-06-04T06:57:52;6.73;;;2.73;;
9914;SDS011;4996;48.746;9.174;2023-06-04T07:00:18;2.60;;;2.20;;
9914;SDS011;4996;48.746;9.174;2023-06-04T07:02:43;3.07;;;2.30;;
9914;SDS011;4996;48.746;9.174;2023-06-04T07:05:10;3.90;;;2.50;;
9914;SDS011;4996;48.746;9.174;2023-06-04T07:07:35;2.07;;;1.80;;
9914;SDS011;4996;48.746;9.174;2023-06-04T07:10:01;2.70;;;2.37;;
9914;SDS011;4996;48.746;9.174;2023-06-04T07:12:28;3.27;;;2.30;;
9914;SDS011;4996;48.746;9.174;2023-06-04T07:14:54;5.60;;;2.87;;
9914;SDS011;4996;48.746;9.174;2023-06-04T07:17:20;2.90;;;2.20;;
9914;SDS011;4996;48.746;9.174;2023-06-04T07:19:46;2.80;;;2.50;;
9914;SDS011;4996;48.746;9.174;2023-06-04T07:22:12;5.00;;;3.17;;
9914;SDS011;4996;48.746;9.174;2023-06-04T07:24:37;5.60;;;2.57;;
9914;SDS011;4996;48.746;9.174;2023-06-04T07:27:09;3.63;;;2.20;;
9914;SDS011;4996;48.746;9.174;2023-06-04T07:29:37;5.57;;;3.37;;
9914;SDS011;4996;48.746;9.174;2023-06-04T07:32:02;3.07;;;2.37;;
9914;SDS011;4996;48.746;9.174;2023-06-04T07:34:28;3.70;;;1.97;;
9914;SDS011;4996;48.746;9.174;2023-06-04T07:36:53;2.87;;;2.07;;
9914;SDS011;4996;48.746;9.174;2023-06-04T07:39:19;4.60;;;2.17;;
9914;SDS011;4996;48.746;9.174;2023-06-04T07:41:44;3.97;;;2.53;;
9914;SDS011;4996;48.746;9.174;2023-06-04T07:44:10;5.70;;;2.57;;
9914;SDS011;4996;48.746;9.174;2023-06-04T07:46:35;4.60;;;2.20;;
9914;SDS011;4996;48.746;9.174;2023-06-04T07:49:01;3.20;;;2.87;;
9914;SDS011;4996;48.746;9.174;2023-06-04T07:51:26;4.13;;;2.33;;
9914;SDS011;4996;48.746;9.174;2023-06-04T07:53:52;2.67;;;2.27;;
9914;SDS011;4996;48.746;9.174;2023-06-04T07:56:17;5.17;;;2.80;;
9914;SDS011;4996;48.746;9.174;2023-06-04T07:58:43;5.40;;;2.70;;
9914;SDS011;4996;48.746;9.174;2023-06-04T08:01:10;2.73;;;2.30;;
9914;SDS011;4996;48.746;9.174;2023-06-04T08:03:35;2.27;;;2.07;;
9914;SDS011;4996;48.746;9.174;2023-06-04T08:06:01;2.80;;;2.03;;
9914;SDS011;4996;48.746;9.174;2023-06-04T08:08:27;4.00;;;2.33;;
9914;SDS011;4996;48.746;9.174;2023-06-04T08:10:52;3.00;;;2.50;;
9914;SDS011;4996;48.746;9.174;2023-06-04T08:13:18;3.17;;;2.70;;
9914;SDS011;4996;48.746;9.174;2023-06-04T08:15:43;4.50;;;2.47;;
9914;SDS011;4996;48.746;9.174;2023-06-04T08:18:09;3.40;;;1.90;;
9914;SDS011;4996;48.746;9.174;2023-06-04T08:20:35;3.60;;;2.10;;
9914;SDS011;4996;48.746;9.174;2023-06-04T08:23:00;2.43;;;2.23;;
9914;SDS011;4996;48.746;9.174;2023-06-04T08:25:26;3.30;;;2.20;;
9914;SDS011;4996;48.746;9.174;2023-06-04T08:27:52;3.30;;;2.30;;
9914;SDS011;4996;48.746;9.174;2023-06-04T08:30:18;3.43;;;2.20;;
9914;SDS011;4996;48.746;9.174;2023-06-04T08:32:43;5.67;;;2.43;;
9914;SDS011;4996;48.746;9.174;2023-06-04T08:35:09;9.80;;;2.97;;
9914;SDS011;4996;48.746;9.174;2023-06-04T08:37:35;6.20;;;2.93;;
9914;SDS011;4996;48.746;9.174;2023-06-04T08:40:01;6.47;;;2.30;;
9914;SDS011;4996;48.746;9.174;2023-06-04T08:42:29;5.10;;;3.00;;
9914;SDS011;4996;48.746;9.174;2023-06-04T08:44:58;4.90;;;2.30;;
9914;SDS011;4996;48.746;9.174;2023-06-04T08:47:24;3.50;;;2.20;;
9914;SDS011;4996;48.746;9.174;2023-06-04T08:49:51;3.03;;;2.23;;
9914;SDS011;4996;48.746;9.174;2023-06-04T08:52:17;5.43;;;2.83;;
9914;SDS011;4996;48.746;9.174;2023-06-04T08:54:47;4.23;;;2.80;;
9914;SDS011;4996;48.746;9.174;2023-06-04T08:57:14;5.07;;;2.77;;
9914;SDS011;4996;48.746;9.174;2023-06-04T08:59:41;3.93;;;2.63;;
9914;SDS011;4996;48.746;9.174;2023-06-04T09:02:06;3.30;;;2.20;;
9914;SDS011;4996;48.746;9.174;2023-06-04T09:04:33;2.90;;;2.70;;
9914;SDS011;4996;48.746;9.174;2023-06-04T09:07:00;4.97;;;2.93;;
9914;SDS011;4996;48.746;9.174;2023-06-04T09:09:28;5.17;;;4.40;;
9914;SDS011;4996;48.746;9.174;2023-06-04T09:11:56;3.20;;;2.53;;
9914;SDS011;4996;48.746;9.174;2023-06-04T09:14:22;5.83;;;2.60;;
9914;SDS011;4996;48.746;9.174;2023-06-04T09:16:52;3.70;;;2.77;;
9914;SDS011;4996;48.746;9.174;2023-06-04T09:19:19;2.70;;;2.37;;
9914;SDS011;4996;48.746;9.174;2023-06-04T09:21:46;4.03;;;2.53;;
9914;SDS011;4996;48.746;9.174;2023-06-04T09:24:16;3.33;;;2.40;;
9914;SDS011;4996;48.746;9.174;2023-06-04T09:26:46;2.80;;;2.40;;
9914;SDS011;4996;48.746;9.174;2023-06-04T09:29:12;4.87;;;2.90;;
9914;SDS011;4996;48.746;9.174;2023-06-04T09:31:38;4.53;;;3.07;;
9914;SDS011;4996;48.746;9.174;2023-06-04T09:34:04;2.93;;;2.60;;
9914;SDS011;4996;48.746;9.174;2023-06-04T09:36:31;4.63;;;2.80;;
9914;SDS011;4996;48.746;9.174;2023-06-04T09:38:57;3.60;;;2.77;;
9914;SDS011;4996;48.746;9.174;2023-06-04T09:41:23;3.07;;;2.80;;
9914;SDS011;4996;48.746;9.174;2023-06-04T09:43:48;4.40;;;3.10;;
9914;SDS011;4996;48.746;9.174;2023-06-04T09:46:15;7.60;;;2.70;;
9914;SDS011;4996;48.746;9.174;2023-06-04T09:48:42;4.60;;;2.93;;
9914;SDS011;4996;48.746;9.174;2023-06-04T09:51:09;5.77;;;2.80;;
9914;SDS011;4996;48.746;9.174;2023-06-04T09:53:36;5.40;;;1.83;;
9914;SDS011;4996;48.746;9.174;2023-06-04T09:56:02;3.07;;;2.70;;
9914;SDS011;4996;48.746;9.174;2023-06-04T09:58:29;3.13;;;2.83;;
9914;SDS011;4996;48.746;9.174;2023-06-04T10:00:56;4.47;;;3.10;;
9914;SDS011;4996;48.746;9.174;2023-06-04T10:03:23;3.30;;;2.87;;
9914;SDS011;4996;48.746;9.174;2023-06-04T10:05:52;3.93;;;3.27;;
9914;SDS011;4996;48.746;9.174;2023-06-04T10:08:21;3.13;;;2.63;;
9914;SDS011;4996;48.746;9.174;2023-06-04T10:10:48;6.20;;;3.17;;
9914;SDS011;4996;48.746;9.174;2023-06-04T10:13:17;5.83;;;3.80;;
9914;SDS011;4996;48.746;9.174;2023-06-04T10:15:44;8.30;;;3.23;;
9914;SDS011;4996;48.746;9.174;2023-06-04T10:18:11;4.03;;;3.57;;
9914;SDS011;4996;48.746;9.174;2023-06-04T10:20:38;4.03;;;3.60;;
9914;SDS011;4996;48.746;9.174;2023-06-04T10:23:05;4.60;;;3.30;;
9914;SDS011;4996;48.746;9.174;2023-06-04T10:25:31;4.97;;;3.57;;
9914;SDS011;4996;48.746;9.174;2023-06-04T10:27:56;10.10;;;4.67;;
9914;SDS011;4996;48.746;9.174;2023-06-04T10:30:23;7.17;;;3.37;;
9914;SDS011;4996;48.746;9.174;2023-06-04T10:32:49;5.83;;;3.30;;
9914;SDS011;4996;48.746;9.174;2023-06-04T10:35:15;5.40;;;3.47;;
9914;SDS011;4996;48.746;9.174;2023-06-04T10:37:40;3.60;;;3.00;;
9914;SDS011;4996;48.746;9.174;2023-06-04T10:40:06;17.57;;;10.47;;
9914;SDS011;4996;48.746;9.174;2023-06-04T10:42:40;5.53;;;4.63;;
9914;SDS011;4996;48.746;9.174;2023-06-04T10:45:07;5.93;;;2.77;;
9914;SDS011;4996;48.746;9.174;2023-06-04T10:47:35;4.27;;;3.70;;
9914;SDS011;4996;48.746;9.174;2023-06-04T10:50:08;6.80;;;3.20;;
9914;SDS011;4996;48.746;9.174;2023-06-04T10:52:38;5.60;;;4.30;;
9914;SDS011;4996;48.746;9.174;2023-06-04T10:55:15;6.13;;;3.30;;
9914;SDS011;4996;48.746;9.174;2023-06-04T10:57:50;6.47;;;3.50;;
9914;SDS011;4996;48.746;9.174;2023-06-04T11:00:19;5.70;;;3.40;;
9914;SDS011;4996;48.746;9.174;2023-06-04T11:02:51;4.10;;;3.50;;
9914;SDS011;4996;48.746;9.174;2023-06-04T11:05:18;3.53;;;2.70;;
9914;SDS011;4996;48.746;9.174;2023-06-04T11:07:46;7.80;;;3.70;;
9914;SDS011;4996;48.746;9.174;2023-06-04T11:10:13;5.77;;;3.47;;
9914;SDS011;4996;48.746;9.174;2023-06-04T11:12:43;4.10;;;3.40;;
9914;SDS011;4996;48.746;9.174;2023-06-04T11:15:13;4.87;;;4.17;;
9914;SDS011;4996;48.746;9.174;2023-06-04T11:17:55;4.20;;;3.13;;
9914;SDS011;4996;48.746;9.174;2023-06-04T11:20:24;5.00;;;3.20;;
9914;SDS011;4996;48.746;9.174;2023-06-04T11:22:53;5.40;;;2.93;;
9914;SDS011;4996;48.746;9.174;2023-06-04T11:25:20;4.33;;;3.33;;
9914;SDS011;4996;48.746;9.174;2023-06-04T11:27:47;4.33;;;3.13;;
9914;SDS011;4996;48.746;9.174;2023-06-04T11:30:13;4.43;;;3.27;;
9914;SDS011;4996;48.746;9.174;2023-06-04T11:32:39;4.13;;;3.30;;
9914;SDS011;4996;48.746;9.174;2023-06-04T11:35:05;7.97;;;3.70;;
9914;SDS011;4996;48.746;9.174;2023-06-04T11:37:32;4.20;;;3.17;;
9914;SDS011;4996;48.746;9.174;2023-06-04T11:39:58;5.00;;;3.03;;
9914;SDS011;4996;48.746;9.174;2023-06-04T11:42:25;5.83;;;3.50;;
9914;SDS011;4996;48.746;9.174;2023-06-04T11:44:56;3.97;;;2.90;;
9914;SDS011;4996;48.746;9.174;2023-06-04T11:47:22;6.20;;;3.17;;
9914;SDS011;4996;48.746;9.174;2023-06-04T11:49:53;5.10;;;3.50;;
9914;SDS011;4996;48.746;9.174;2023-06-04T11:52:22;3.50;;;2.97;;
9914;SDS011;4996;48.746;9.174;2023-06-04T11:54:49;4.20;;;3.57;;
9914;SDS011;4996;48.746;9.174;2023-06-04T11:57:15;7.80;;;3.90;;
9914;SDS011;4996;48.746;9.174;2023-06-04T11:59:41;3.80;;;3.10;;
9914;SDS011;4996;48.746;9.174;2023-06-04T12:02:07;5.87;;;3.50;;
9914;SDS011;4996;48.746;9.174;2023-06-04T12:04:33;5.53;;;2.97;;
9914;SDS011;4996;48.746;9.174;2023-06-04T12:06:59;5.20;;;3.33;;
9914;SDS011;4996;48.746;9.174;2023-06-04T12:09:31;4.63;;;3.00;;
9914;SDS011;4996;48.746;9.174;2023-06-04T12:12:06;6.47;;;3.77;;
9914;SDS011;4996;48.746;9.174;2023-06-04T12:14:33;3.93;;;2.90;;
9914;SDS011;4996;48.746;9.174;2023-06-04T12:16:59;4.43;;;3.43;;
9914;SDS011;4996;48.746;9.174;2023-06-04T12:19:47;3.50;;;3.20;;
9914;SDS011;4996;48.746;9.174;2023-06-04T12:22:15;3.77;;;3.20;;
9914;SDS011;4996;48.746;9.174;2023-06-04T12:24:49;6.20;;;3.63;;
9914;SDS011;4996;48.746;9.174;2023-06-04T12:27:19;8.50;;;3.97;;
9914;SDS011;4996;48.746;9.174;2023-06-04T12:32:27;4.40;;;4.00;;
9914;SDS011;4996;48.746;9.174;2023-06-04T12:34:53;4.67;;;3.57;;
9914;SDS011;4996;48.746;9.174;2023-06-04T12:37:20;4.70;;;3.83;;
9914;SDS011;4996;48.746;9.174;2023-06-04T12:39:46;4.07;;;3.13;;
9914;SDS011;4996;48.746;9.174;2023-06-04T12:42:12;3.57;;;3.27;;
9914;SDS011;4996;48.746;9.174;2023-06-04T12:44:38;5.30;;;3.30;;
9914;SDS011;4996;48.746;9.174;2023-06-04T12:47:04;4.30;;;3.60;;
9914;SDS011;4996;48.746;9.174;2023-06-04T12:49:30;5.47;;;3.90;;
9914;SDS011;4996;48.746;9.174;2023-06-04T12:51:56;7.23;;;3.93;;
9914;SDS011;4996;48.746;9.174;2023-06-04T12:54:22;4.70;;;4.20;;
9914;SDS011;4996;48.746;9.174;2023-06-04T12:56:47;3.70;;;3.40;;
9914;SDS011;4996;48.746;9.174;2023-06-04T12:59:13;5.17;;;3.83;;
9914;SDS011;4996;48.746;9.174;2023-06-04T13:01:39;3.80;;;3.40;;
9914;SDS011;4996;48.746;9.174;2023-06-04T13:04:04;4.03;;;3.20;;
9914;SDS011;4996;48.746;9.174;2023-06-04T13:06:30;4.87;;;3.80;;
9914;SDS011;4996;48.746;9.174;2023-06-04T13:08:56;4.30;;;3.63;;
9914;SDS011;4996;48.746;9.174;2023-06-04T13:11:22;3.97;;;3.60;;
9914;SDS011;4996;48.746;9.174;2023-06-04T13:13:48;5.40;;;3.90;;
9914;SDS011;4996;48.746;9.174;2023-06-04T13:16:13;4.13;;;3.73;;
9914;SDS011;4996;48.746;9.174;2023-06-04T13:18:39;5.50;;;3.90;;
9914;SDS011;4996;48.746;9.174;2023-06-04T13:21:05;6.50;;;4.03;;
9914;SDS011;4996;48.746;9.174;2023-06-04T13:23:30;5.77;;;3.63;;
9914;SDS011;4996;48.746;9.174;2023-06-04T13:25:56;4.83;;;3.40;;
9914;SDS011;4996;48.746;9.174;2023-06-04T13:28:21;4.30;;;3.70;;
9914;SDS011;4996;48.746;9.174;2023-06-04T13:30:47;5.20;;;4.17;;
9914;SDS011;4996;48.746;9.174;2023-06-04T13:33:13;4.90;;;3.43;;
9914;SDS011;4996;48.746;9.174;2023-06-04T13:35:39;4.67;;;3.77;;
9914;SDS011;4996;48.746;9.174;2023-06-04T13:38:05;4.23;;;3.83;;
9914;SDS011;4996;48.746;9.174;2023-06-04T13:40:31;4.57;;;4.07;;
9914;SDS011;4996;48.746;9.174;2023-06-04T13:42:58;4.20;;;3.80;;
9914;SDS011;4996;48.746;9.174;2023-06-04T13:45:24;6.03;;;3.70;;
9914;SDS011;4996;48.746;9.174;2023-06-04T13:47:50;4.23;;;3.57;;
9914;SDS011;4996;48.746;9.174;2023-06-04T13:50:15;5.10;;;3.67;;
9914;SDS011;4996;48.746;9.174;2023-06-04T13:52:41;3.93;;;3.53;;
9914;SDS011;4996;48.746;9.174;2023-06-04T13:55:06;4.80;;;3.87;;
9914;SDS011;4996;48.746;9.174;2023-06-04T13:57:32;4.67;;;3.73;;
9914;SDS011;4996;48.746;9.174;2023-06-04T13:59:58;4.13;;;3.60;;
9914;SDS011;4996;48.746;9.174;2023-06-04T14:02:23;5.93;;;3.80;;
9914;SDS011;4996;48.746;9.174;2023-06-04T14:04:49;5.13;;;4.00;;
9914;SDS011;4996;48.746;9.174;2023-06-04T14:07:15;6.60;;;3.80;;
9914;SDS011;4996;48.746;9.174;2023-06-04T14:09:41;6.63;;;3.90;;
9914;SDS011;4996;48.746;9.174;2023-06-04T14:12:07;4.10;;;3.53;;
9914;SDS011;4996;48.746;9.174;2023-06-04T14:14:33;4.07;;;3.63;;
9914;SDS011;4996;48.746;9.174;2023-06-04T14:17:04;4.13;;;3.60;;
9914;SDS011;4996;48.746;9.174;2023-06-04T14:19:32;7.10;;;4.00;;
9914;SDS011;4996;48.746;9.174;2023-06-04T14:21:58;7.43;;;3.87;;
9914;SDS011;4996;48.746;9.174;2023-06-04T14:24:23;5.10;;;3.40;;
9914;SDS011;4996;48.746;9.174;2023-06-04T14:26:49;7.13;;;3.77;;
9914;SDS011;4996;48.746;9.174;2023-06-04T14:29:14;4.50;;;4.10;;
9914;SDS011;4996;48.746;9.174;2023-06-04T14:31:40;5.07;;;3.37;;
9914;SDS011;4996;48.746;9.174;2023-06-04T14:34:06;6.47;;;3.60;;
9914;SDS011;4996;48.746;9.174;2023-06-04T14:36:34;7.03;;;3.33;;
9914;SDS011;4996;48.746;9.174;2023-06-04T14:38:59;5.67;;;2.93;;
9914;SDS011;4996;48.746;9.174;2023-06-04T14:41:25;6.37;;;4.10;;
9914;SDS011;4996;48.746;9.174;2023-06-04T14:43:52;4.70;;;3.67;;
9914;SDS011;4996;48.746;9.174;2023-06-04T14:46:17;6.10;;;3.50;;
9914;SDS011;4996;48.746;9.174;2023-06-04T14:48:43;5.10;;;3.43;;
9914;SDS011;4996;48.746;9.174;2023-06-04T14:51:08;5.20;;;3.77;;
9914;SDS011;4996;48.746;9.174;2023-06-04T14:53:34;4.20;;;3.20;;
9914;SDS011;4996;48.746;9.174;2023-06-04T14:56:03;5.03;;;3.77;;
9914;SDS011;4996;48.746;9.174;2023-06-04T14:58:32;4.27;;;3.70;;
9914;SDS011;4996;48.746;9.174;2023-06-04T15:01:01;3.97;;;3.17;;
9914;SDS011;4996;48.746;9.174;2023-06-04T15:03:28;5.13;;;3.57;;
9914;SDS011;4996;48.746;9.174;2023-06-04T15:05:54;5.40;;;3.77;;
9914;SDS011;4996;48.746;9.174;2023-06-04T15:08:20;4.90;;;2.83;;
9914;SDS011;4996;48.746;9.174;2023-06-04T15:10:46;3.90;;;3.50;;
9914;SDS011;4996;48.746;9.174;2023-06-04T15:13:11;5.40;;;3.13;;
9914;SDS011;4996;48.746;9.174;2023-06-04T15:15:37;5.40;;;3.20;;